sensor_id;sensor_type;location;lat;lon;timestamp;temperature;humidity
46438;DHT22;32137;48.728;9.142;2023-07-13T00:01:12;20.80;99.90
46438;DHT22;32137;48.728;9.142;2023-07-13T00:03:38;20.70;99.90
46438;DHT22;32137;48.728;9.142;2023-07-13T00:06:06;20.60;99.90
46438;DHT22;32137;48.728;9.142;2023-07-13T00:08:32;20.60;99.90
46438;DHT22;32137;48.728;9.142;2023-07-13T00:11:03;20.50;99.90
46438;DHT22;32137;48.728;9.142;2023-07-13T00:13:30;20.50;99.90
46438;DHT22;32137;48.728;9.142;2023-07-13T00:15:57;20.50;99.90
46438;DHT22;32137;48.728;9.142;2023-07-13T00:18:23;20.40;99.90
46438;DHT22;32137;48.728;9.142;2023-07-13T00:20:48;20.40;99.90
46438;DHT22;32137;48.728;9.142;2023-07-13T00:23:14;20.30;99.90
46438;DHT22;32137;48.728;9.142;2023-07-13T00:25:40;20.30;99.90
46438;DHT22;32137;48.728;9.142;2023-07-13T00:28:06;20.30;99.90
46438;DHT22;32137;48.728;9.142;2023-07-13T00:30:31;20.20;99.90
46438;DHT22;32137;48.728;9.142;2023-07-13T00:32:57;20.10;99.90
46438;DHT22;32137;48.728;9.142;2023-07-13T00:35:22;20.20;99.90
46438;DHT22;32137;48.728;9.142;2023-07-13T00:37:48;20.10;99.90
46438;DHT22;32137;48.728;9.142;2023-07-13T00:40:16;20.10;99.90
46438;DHT22;32137;48.728;9.142;2023-07-13T00:42:41;20.10;99.90
46438;DHT22;32137;48.728;9.142;2023-07-13T00:47:54;20.10;99.90
46438;DHT22;32137;48.728;9.142;2023-07-13T00:50:21;20.10;99.90
46438;DHT22;32137;48.728;9.142;2023-07-13T00:52:50;20.10;99.90
46438;DHT22;32137;48.728;9.142;2023-07-13T00:55:18;20.00;99.90
46438;DHT22;32137;48.728;9.142;2023-07-13T00:57:45;20.00;99.90
46438;DHT22;32137;48.728;9.142;2023-07-13T01:00:12;20.10;99.90
46438;DHT22;32137;48.728;9.142;2023-07-13T01:02:42;20.00;99.90
46438;DHT22;32137;48.728;9.142;2023-07-13T01:05:12;20.10;99.90
46438;DHT22;32137;48.728;9.142;2023-07-13T01:07:39;20.00;99.90
46438;DHT22;32137;48.728;9.142;2023-07-13T01:10:06;20.00;99.90
46438;DHT22;32137;48.728;9.142;2023-07-13T01:12:32;20.00;99.90
46438;DHT22;32137;48.728;9.142;2023-07-13T01:14:58;20.00;99.90
46438;DHT22;32137;48.728;9.142;2023-07-13T01:17:26;19.90;99.90
46438;DHT22;32137;48.728;9.142;2023-07-13T01:19:52;19.90;99.90
46438;DHT22;32137;48.728;9.142;2023-07-13T01:22:18;19.90;99.90
46438;DHT22;32137;48.728;9.142;2023-07-13T01:24:47;19.90;99.90
46438;DHT22;32137;48.728;9.142;2023-07-13T01:27:15;19.90;99.90
46438;DHT22;32137;48.728;9.142;2023-07-13T01:29:44;20.00;99.90
46438;DHT22;32137;48.728;9.142;2023-07-13T01:32:23;20.00;99.90
46438;DHT22;32137;48.728;9.142;2023-07-13T01:34:50;19.90;99.90
46438;DHT22;32137;48.728;9.142;2023-07-13T01:37:16;19.90;99.90
46438;DHT22;32137;48.728;9.142;2023-07-13T01:39:41;19.80;99.90
46438;DHT22;32137;48.728;9.142;2023-07-13T01:42:07;19.70;99.90
46438;DHT22;32137;48.728;9.142;2023-07-13T01:44:33;19.60;99.90
46438;DHT22;32137;48.728;9.142;2023-07-13T01:46:59;19.60;99.90
46438;DHT22;32137;48.728;9.142;2023-07-13T01:49:24;19.50;99.90
46438;DHT22;32137;48.728;9.142;2023-07-13T01:51:50;19.50;99.90
46438;DHT22;32137;48.728;9.142;2023-07-13T01:54:15;19.50;99.90
46438;DHT22;32137;48.728;9.142;2023-07-13T01:56:41;19.50;99.90
46438;DHT22;32137;48.728;9.142;2023-07-13T01:59:07;19.50;99.90
46438;DHT22;32137;48.728;9.142;2023-07-13T02:01:33;19.50;99.90
46438;DHT22;32137;48.728;9.142;2023-07-13T02:03:59;19.50;99.90
46438;DHT22;32137;48.728;9.142;2023-07-13T02:06:24;19.50;99.90
46438;DHT22;32137;48.728;9.142;2023-07-13T02:08:50;19.50;99.90
46438;DHT22;32137;48.728;9.142;2023-07-13T02:11:15;19.40;99.90
46438;DHT22;32137;48.728;9.142;2023-07-13T02:13:41;19.40;99.90
46438;DHT22;32137;48.728;9.142;2023-07-13T02:16:06;19.40;99.90
46438;DHT22;32137;48.728;9.142;2023-07-13T02:18:32;19.40;99.90
46438;DHT22;32137;48.728;9.142;2023-07-13T02:20:58;19.40;99.90
46438;DHT22;32137;48.728;9.142;2023-07-13T02:23:23;19.40;99.90
46438;DHT22;32137;48.728;9.142;2023-07-13T02:25:49;19.40;99.90
46438;DHT22;32137;48.728;9.142;2023-07-13T02:28:15;19.30;99.90
46438;DHT22;32137;48.728;9.142;2023-07-13T02:30:40;19.20;99.90
46438;DHT22;32137;48.728;9.142;2023-07-13T02:33:06;19.20;99.90
46438;DHT22;32137;48.728;9.142;2023-07-13T02:35:31;19.10;99.90
46438;DHT22;32137;48.728;9.142;2023-07-13T02:37:57;19.00;99.90
46438;DHT22;32137;48.728;9.142;2023-07-13T02:40:23;18.90;99.90
46438;DHT22;32137;48.728;9.142;2023-07-13T02:42:48;18.90;99.90
46438;DHT22;32137;48.728;9.142;2023-07-13T02:45:14;18.90;99.90
46438;DHT22;32137;48.728;9.142;2023-07-13T02:47:41;18.90;99.90
46438;DHT22;32137;48.728;9.142;2023-07-13T02:50:07;18.70;99.90
46438;DHT22;32137;48.728;9.142;2023-07-13T02:52:33;18.60;99.90
46438;DHT22;32137;48.728;9.142;2023-07-13T02:54:58;18.60;99.90
46438;DHT22;32137;48.728;9.142;2023-07-13T02:57:24;18.60;99.90
46438;DHT22;32137;48.728;9.142;2023-07-13T02:59:50;18.60;99.90
46438;DHT22;32137;48.728;9.142;2023-07-13T03:02:16;18.60;99.90
46438;DHT22;32137;48.728;9.142;2023-07-13T03:04:41;18.80;99.90
46438;DHT22;32137;48.728;9.142;2023-07-13T03:07:07;18.80;99.90
46438;DHT22;32137;48.728;9.142;2023-07-13T03:09:34;18.70;99.90
46438;DHT22;32137;48.728;9.142;2023-07-13T03:12:00;18.70;99.90
46438;DHT22;32137;48.728;9.142;2023-07-13T03:14:26;18.70;1.00
46438;DHT22;32137;48.728;9.142;2023-07-13T03:16:52;18.60;1.00
46438;DHT22;32137;48.728;9.142;2023-07-13T03:19:18;18.60;1.00
46438;DHT22;32137;48.728;9.142;2023-07-13T03:21:44;18.50;1.00
46438;DHT22;32137;48.728;9.142;2023-07-13T03:24:10;18.60;1.00
46438;DHT22;32137;48.728;9.142;2023-07-13T03:26:35;18.60;1.00
46438;DHT22;32137;48.728;9.142;2023-07-13T03:29:01;18.60;1.00
46438;DHT22;32137;48.728;9.142;2023-07-13T03:31:28;18.60;1.00
46438;DHT22;32137;48.728;9.142;2023-07-13T03:33:55;18.60;1.00
46438;DHT22;32137;48.728;9.142;2023-07-13T03:36:26;18.50;1.00
46438;DHT22;32137;48.728;9.142;2023-07-13T03:38:54;18.50;1.00
46438;DHT22;32137;48.728;9.142;2023-07-13T03:41:21;18.50;1.00
46438;DHT22;32137;48.728;9.142;2023-07-13T03:43:48;18.50;1.00
46438;DHT22;32137;48.728;9.142;2023-07-13T03:46:14;18.50;1.00
46438;DHT22;32137;48.728;9.142;2023-07-13T03:48:41;18.60;1.00
46438;DHT22;32137;48.728;9.142;2023-07-13T03:51:09;18.60;1.00
46438;DHT22;32137;48.728;9.142;2023-07-13T03:53:39;18.70;1.00
46438;DHT22;32137;48.728;9.142;2023-07-13T03:56:06;18.70;1.00
46438;DHT22;32137;48.728;9.142;2023-07-13T03:58:34;18.80;1.00
46438;DHT22;32137;48.728;9.142;2023-07-13T04:01:01;18.80;1.00
46438;DHT22;32137;48.728;9.142;2023-07-13T04:03:28;18.80;99.90
46438;DHT22;32137;48.728;9.142;2023-07-13T04:05:55;18.80;99.90
46438;DHT22;32137;48.728;9.142;2023-07-13T04:08:28;18.80;99.90
46438;DHT22;32137;48.728;9.142;2023-07-13T04:10:54;18.80;99.90
46438;DHT22;32137;48.728;9.142;2023-07-13T04:13:20;18.80;1.00
46438;DHT22;32137;48.728;9.142;2023-07-13T04:15:46;18.70;1.00
46438;DHT22;32137;48.728;9.142;2023-07-13T04:18:11;18.70;1.00
46438;DHT22;32137;48.728;9.142;2023-07-13T04:20:37;18.70;1.00
46438;DHT22;32137;48.728;9.142;2023-07-13T04:23:02;18.70;1.00
46438;DHT22;32137;48.728;9.142;2023-07-13T04:25:28;18.70;1.00
46438;DHT22;32137;48.728;9.142;2023-07-13T04:27:54;18.80;99.90
46438;DHT22;32137;48.728;9.142;2023-07-13T04:30:20;18.70;99.90
46438;DHT22;32137;48.728;9.142;2023-07-13T04:32:45;18.80;99.90
46438;DHT22;32137;48.728;9.142;2023-07-13T04:35:11;18.80;99.90
46438;DHT22;32137;48.728;9.142;2023-07-13T04:37:36;18.80;99.90
46438;DHT22;32137;48.728;9.142;2023-07-13T04:40:02;18.80;99.90
46438;DHT22;32137;48.728;9.142;2023-07-13T04:42:29;18.80;99.90
46438;DHT22;32137;48.728;9.142;2023-07-13T04:44:55;18.80;99.90
46438;DHT22;32137;48.728;9.142;2023-07-13T04:47:20;18.70;99.90
46438;DHT22;32137;48.728;9.142;2023-07-13T04:49:46;18.80;1.00
46438;DHT22;32137;48.728;9.142;2023-07-13T04:52:12;18.80;1.00
46438;DHT22;32137;48.728;9.142;2023-07-13T04:54:38;18.70;99.90
46438;DHT22;32137;48.728;9.142;2023-07-13T04:57:05;18.60;99.90
46438;DHT22;32137;48.728;9.142;2023-07-13T04:59:33;18.60;1.00
46438;DHT22;32137;48.728;9.142;2023-07-13T05:01:59;18.50;99.90
46438;DHT22;32137;48.728;9.142;2023-07-13T05:04:25;18.60;99.90
46438;DHT22;32137;48.728;9.142;2023-07-13T05:06:50;18.60;99.90
46438;DHT22;32137;48.728;9.142;2023-07-13T05:09:16;18.60;99.90
46438;DHT22;32137;48.728;9.142;2023-07-13T05:11:42;18.70;99.90
46438;DHT22;32137;48.728;9.142;2023-07-13T05:14:08;18.70;99.90
46438;DHT22;32137;48.728;9.142;2023-07-13T05:16:35;18.70;99.90
46438;DHT22;32137;48.728;9.142;2023-07-13T05:19:00;18.80;99.90
46438;DHT22;32137;48.728;9.142;2023-07-13T05:21:26;18.80;99.90
46438;DHT22;32137;48.728;9.142;2023-07-13T05:23:52;18.80;99.90
46438;DHT22;32137;48.728;9.142;2023-07-13T05:26:17;18.90;99.90
46438;DHT22;32137;48.728;9.142;2023-07-13T05:28:43;18.90;99.90
46438;DHT22;32137;48.728;9.142;2023-07-13T05:31:10;18.90;99.90
46438;DHT22;32137;48.728;9.142;2023-07-13T05:33:36;18.90;99.90
46438;DHT22;32137;48.728;9.142;2023-07-13T05:36:01;18.90;99.90
46438;DHT22;32137;48.728;9.142;2023-07-13T05:38:27;18.90;99.90
46438;DHT22;32137;48.728;9.142;2023-07-13T05:40:54;18.90;99.90
46438;DHT22;32137;48.728;9.142;2023-07-13T05:43:22;19.00;99.90
46438;DHT22;32137;48.728;9.142;2023-07-13T05:45:48;19.00;99.90
46438;DHT22;32137;48.728;9.142;2023-07-13T05:48:14;18.90;99.90
46438;DHT22;32137;48.728;9.142;2023-07-13T05:50:40;19.00;99.90
46438;DHT22;32137;48.728;9.142;2023-07-13T05:53:06;18.90;99.90
46438;DHT22;32137;48.728;9.142;2023-07-13T05:55:31;18.80;99.90
46438;DHT22;32137;48.728;9.142;2023-07-13T05:57:57;18.80;99.90
46438;DHT22;32137;48.728;9.142;2023-07-13T06:00:24;18.80;99.90
46438;DHT22;32137;48.728;9.142;2023-07-13T06:02:50;18.80;99.90
46438;DHT22;32137;48.728;9.142;2023-07-13T06:05:15;18.70;99.90
46438;DHT22;32137;48.728;9.142;2023-07-13T06:07:42;18.70;99.90
46438;DHT22;32137;48.728;9.142;2023-07-13T06:10:07;18.70;99.90
46438;DHT22;32137;48.728;9.142;2023-07-13T06:12:33;18.70;99.90
46438;DHT22;32137;48.728;9.142;2023-07-13T06:14:58;18.70;99.90
46438;DHT22;32137;48.728;9.142;2023-07-13T06:17:24;18.70;99.90
46438;DHT22;32137;48.728;9.142;2023-07-13T06:19:50;18.70;99.90
46438;DHT22;32137;48.728;9.142;2023-07-13T06:22:15;18.70;99.90
46438;DHT22;32137;48.728;9.142;2023-07-13T06:24:41;18.70;99.90
46438;DHT22;32137;48.728;9.142;2023-07-13T06:27:06;18.70;99.90
46438;DHT22;32137;48.728;9.142;2023-07-13T06:29:32;18.70;99.90
46438;DHT22;32137;48.728;9.142;2023-07-13T06:31:57;18.70;99.90
46438;DHT22;32137;48.728;9.142;2023-07-13T06:34:23;18.80;99.90
46438;DHT22;32137;48.728;9.142;2023-07-13T06:36:48;18.80;99.90
46438;DHT22;32137;48.728;9.142;2023-07-13T06:39:14;18.80;99.90
46438;DHT22;32137;48.728;9.142;2023-07-13T06:41:40;18.80;70.00
46438;DHT22;32137;48.728;9.142;2023-07-13T06:44:05;18.90;79.50
46438;DHT22;32137;48.728;9.142;2023-07-13T06:46:31;18.90;82.30
46438;DHT22;32137;48.728;9.142;2023-07-13T06:48:57;18.90;56.30
46438;DHT22;32137;48.728;9.142;2023-07-13T06:51:23;19.00;59.20
46438;DHT22;32137;48.728;9.142;2023-07-13T06:53:48;19.00;34.90
46438;DHT22;32137;48.728;9.142;2023-07-13T06:56:15;19.00;35.60
46438;DHT22;32137;48.728;9.142;2023-07-13T06:58:41;19.00;33.20
46438;DHT22;32137;48.728;9.142;2023-07-13T07:01:07;19.00;21.20
46438;DHT22;32137;48.728;9.142;2023-07-13T07:03:32;19.00;1.00
46438;DHT22;32137;48.728;9.142;2023-07-13T07:06:16;19.00;1.00
46438;DHT22;32137;48.728;9.142;2023-07-13T07:08:43;19.00;1.00
46438;DHT22;32137;48.728;9.142;2023-07-13T07:11:12;19.00;1.00
46438;DHT22;32137;48.728;9.142;2023-07-13T07:13:38;19.00;1.00
46438;DHT22;32137;48.728;9.142;2023-07-13T07:16:04;19.00;1.00
46438;DHT22;32137;48.728;9.142;2023-07-13T07:18:29;19.10;1.00
46438;DHT22;32137;48.728;9.142;2023-07-13T07:20:55;19.10;1.00
46438;DHT22;32137;48.728;9.142;2023-07-13T07:23:20;19.10;1.00
46438;DHT22;32137;48.728;9.142;2023-07-13T07:25:46;19.10;1.00
46438;DHT22;32137;48.728;9.142;2023-07-13T07:28:14;19.10;1.00
46438;DHT22;32137;48.728;9.142;2023-07-13T07:30:43;19.10;1.00
46438;DHT22;32137;48.728;9.142;2023-07-13T07:33:09;19.10;1.00
46438;DHT22;32137;48.728;9.142;2023-07-13T07:35:34;19.10;99.90
46438;DHT22;32137;48.728;9.142;2023-07-13T07:38:00;19.10;99.90
46438;DHT22;32137;48.728;9.142;2023-07-13T07:40:25;19.10;99.90
46438;DHT22;32137;48.728;9.142;2023-07-13T07:42:51;19.10;99.90
46438;DHT22;32137;48.728;9.142;2023-07-13T07:45:17;19.10;99.90
46438;DHT22;32137;48.728;9.142;2023-07-13T07:47:43;19.10;99.90
46438;DHT22;32137;48.728;9.142;2023-07-13T07:50:09;19.20;92.60
46438;DHT22;32137;48.728;9.142;2023-07-13T07:52:35;19.20;87.00
46438;DHT22;32137;48.728;9.142;2023-07-13T07:55:00;19.20;91.70
46438;DHT22;32137;48.728;9.142;2023-07-13T07:57:26;19.20;90.70
46438;DHT22;32137;48.728;9.142;2023-07-13T07:59:51;19.20;94.70
46438;DHT22;32137;48.728;9.142;2023-07-13T08:02:17;19.20;97.10
46438;DHT22;32137;48.728;9.142;2023-07-13T08:04:42;19.20;95.90
46438;DHT22;32137;48.728;9.142;2023-07-13T08:07:09;19.30;95.40
46438;DHT22;32137;48.728;9.142;2023-07-13T08:09:34;19.30;91.80
46438;DHT22;32137;48.728;9.142;2023-07-13T08:12:00;19.30;88.60
46438;DHT22;32137;48.728;9.142;2023-07-13T08:14:26;19.30;91.90
46438;DHT22;32137;48.728;9.142;2023-07-13T08:16:51;19.40;99.90
46438;DHT22;32137;48.728;9.142;2023-07-13T08:19:17;19.40;96.00
46438;DHT22;32137;48.728;9.142;2023-07-13T08:21:42;19.40;94.00
46438;DHT22;32137;48.728;9.142;2023-07-13T08:24:09;19.50;99.90
46438;DHT22;32137;48.728;9.142;2023-07-13T08:26:34;19.50;81.90
46438;DHT22;32137;48.728;9.142;2023-07-13T08:29:00;19.60;91.60
46438;DHT22;32137;48.728;9.142;2023-07-13T08:31:25;19.60;92.00
46438;DHT22;32137;48.728;9.142;2023-07-13T08:33:51;19.60;85.10
46438;DHT22;32137;48.728;9.142;2023-07-13T08:36:16;19.70;73.90
46438;DHT22;32137;48.728;9.142;2023-07-13T08:38:42;19.70;79.50
46438;DHT22;32137;48.728;9.142;2023-07-13T08:41:14;19.70;65.70
46438;DHT22;32137;48.728;9.142;2023-07-13T08:43:41;19.80;77.80
46438;DHT22;32137;48.728;9.142;2023-07-13T08:48:43;19.90;91.30
46438;DHT22;32137;48.728;9.142;2023-07-13T08:53:54;20.00;47.90
46438;DHT22;32137;48.728;9.142;2023-07-13T08:56:28;20.20;46.40
46438;DHT22;32137;48.728;9.142;2023-07-13T08:59:15;20.20;43.10
46438;DHT22;32137;48.728;9.142;2023-07-13T09:04:32;20.50;52.80
46438;DHT22;32137;48.728;9.142;2023-07-13T09:14:59;20.80;29.90
46438;DHT22;32137;48.728;9.142;2023-07-13T09:17:35;20.90;18.00
46438;DHT22;32137;48.728;9.142;2023-07-13T09:20:21;21.00;27.70
46438;DHT22;32137;48.728;9.142;2023-07-13T09:22:49;21.00;32.30
46438;DHT22;32137;48.728;9.142;2023-07-13T09:25:30;21.10;38.10
46438;DHT22;32137;48.728;9.142;2023-07-13T09:28:02;21.20;40.50
46438;DHT22;32137;48.728;9.142;2023-07-13T09:30:49;21.20;45.90
46438;DHT22;32137;48.728;9.142;2023-07-13T09:33:17;21.30;30.40
46438;DHT22;32137;48.728;9.142;2023-07-13T09:35:42;21.30;15.60
46438;DHT22;32137;48.728;9.142;2023-07-13T09:38:14;21.40;16.10
46438;DHT22;32137;48.728;9.142;2023-07-13T09:43:15;21.40;4.60
46438;DHT22;32137;48.728;9.142;2023-07-13T09:45:45;21.50;11.90
46438;DHT22;32137;48.728;9.142;2023-07-13T09:48:13;21.70;8.50
46438;DHT22;32137;48.728;9.142;2023-07-13T09:50:40;21.80;1.00
46438;DHT22;32137;48.728;9.142;2023-07-13T09:53:15;21.90;1.00
46438;DHT22;32137;48.728;9.142;2023-07-13T09:55:43;22.00;1.00
46438;DHT22;32137;48.728;9.142;2023-07-13T09:58:15;22.20;1.00
46438;DHT22;32137;48.728;9.142;2023-07-13T10:00:43;22.30;1.00
46438;DHT22;32137;48.728;9.142;2023-07-13T10:05:45;22.50;1.00
46438;DHT22;32137;48.728;9.142;2023-07-13T10:08:26;22.50;1.00
46438;DHT22;32137;48.728;9.142;2023-07-13T10:11:20;22.50;1.00
46438;DHT22;32137;48.728;9.142;2023-07-13T10:13:53;22.50;1.00
46438;DHT22;32137;48.728;9.142;2023-07-13T10:16:21;22.60;1.00
46438;DHT22;32137;48.728;9.142;2023-07-13T10:18:55;22.60;1.00
46438;DHT22;32137;48.728;9.142;2023-07-13T10:21:23;22.70;1.00
46438;DHT22;32137;48.728;9.142;2023-07-13T10:24:23;22.70;1.00
46438;DHT22;32137;48.728;9.142;2023-07-13T10:29:34;23.10;1.00
46438;DHT22;32137;48.728;9.142;2023-07-13T10:32:01;23.20;1.00
46438;DHT22;32137;48.728;9.142;2023-07-13T10:34:26;23.30;1.00
46438;DHT22;32137;48.728;9.142;2023-07-13T10:36:52;23.40;1.00
46438;DHT22;32137;48.728;9.142;2023-07-13T10:39:21;23.50;1.00
46438;DHT22;32137;48.728;9.142;2023-07-13T10:42:01;23.40;1.00
46438;DHT22;32137;48.728;9.142;2023-07-13T10:44:30;23.40;1.00
46438;DHT22;32137;48.728;9.142;2023-07-13T10:46:59;23.50;1.00
46438;DHT22;32137;48.728;9.142;2023-07-13T10:49:29;23.40;1.00
46438;DHT22;32137;48.728;9.142;2023-07-13T10:51:55;23.30;1.00
46438;DHT22;32137;48.728;9.142;2023-07-13T10:57:21;23.20;1.00
46438;DHT22;32137;48.728;9.142;2023-07-13T11:00:16;23.20;1.00
46438;DHT22;32137;48.728;9.142;2023-07-13T11:02:42;23.30;1.00
46438;DHT22;32137;48.728;9.142;2023-07-13T11:05:29;23.40;1.00
46438;DHT22;32137;48.728;9.142;2023-07-13T11:08:04;23.40;1.00
46438;DHT22;32137;48.728;9.142;2023-07-13T11:10:50;23.40;1.00
46438;DHT22;32137;48.728;9.142;2023-07-13T11:13:36;23.50;1.00
46438;DHT22;32137;48.728;9.142;2023-07-13T11:18:51;23.80;1.00
46438;DHT22;32137;48.728;9.142;2023-07-13T11:21:26;24.00;1.00
46438;DHT22;32137;48.728;9.142;2023-07-13T11:24:15;24.10;1.00
46438;DHT22;32137;48.728;9.142;2023-07-13T11:29:33;24.40;1.00
46438;DHT22;32137;48.728;9.142;2023-07-13T11:32:23;24.50;1.00
46438;DHT22;32137;48.728;9.142;2023-07-13T11:34:49;24.60;1.00
46438;DHT22;32137;48.728;9.142;2023-07-13T11:37:17;24.70;1.00
46438;DHT22;32137;48.728;9.142;2023-07-13T11:39:44;24.80;1.00
46438;DHT22;32137;48.728;9.142;2023-07-13T11:42:20;25.00;1.00
46438;DHT22;32137;48.728;9.142;2023-07-13T11:44:48;25.20;1.00
46438;DHT22;32137;48.728;9.142;2023-07-13T11:47:22;26.00;1.00
46438;DHT22;32137;48.728;9.142;2023-07-13T11:49:49;27.80;1.00
46438;DHT22;32137;48.728;9.142;2023-07-13T11:52:19;27.00;1.00
46438;DHT22;32137;48.728;9.142;2023-07-13T11:54:50;26.40;1.00
46438;DHT22;32137;48.728;9.142;2023-07-13T11:57:34;25.90;1.00
46438;DHT22;32137;48.728;9.142;2023-07-13T12:00:09;25.40;1.00
46438;DHT22;32137;48.728;9.142;2023-07-13T12:02:39;26.60;1.00
46438;DHT22;32137;48.728;9.142;2023-07-13T12:05:09;30.80;1.00
46438;DHT22;32137;48.728;9.142;2023-07-13T12:07:35;34.00;1.00
46438;DHT22;32137;48.728;9.142;2023-07-13T12:10:25;36.30;1.00
46438;DHT22;32137;48.728;9.142;2023-07-13T12:12:54;38.40;1.00
46438;DHT22;32137;48.728;9.142;2023-07-13T12:15:21;39.10;1.00
46438;DHT22;32137;48.728;9.142;2023-07-13T12:17:48;36.20;1.00
46438;DHT22;32137;48.728;9.142;2023-07-13T12:20:25;33.50;1.00
46438;DHT22;32137;48.728;9.142;2023-07-13T12:22:52;31.40;1.00
46438;DHT22;32137;48.728;9.142;2023-07-13T12:25:19;34.10;1.00
46438;DHT22;32137;48.728;9.142;2023-07-13T12:27:50;36.90;1.00
46438;DHT22;32137;48.728;9.142;2023-07-13T12:30:47;38.60;99.90
46438;DHT22;32137;48.728;9.142;2023-07-13T12:33:13;40.00;99.90
46438;DHT22;32137;48.728;9.142;2023-07-13T12:35:46;41.00;99.90
46438;DHT22;32137;48.728;9.142;2023-07-13T12:38:12;39.20;99.90
46438;DHT22;32137;48.728;9.142;2023-07-13T12:40:39;37.10;99.90
46438;DHT22;32137;48.728;9.142;2023-07-13T12:43:11;34.80;99.90
46438;DHT22;32137;48.728;9.142;2023-07-13T12:45:38;34.30;99.90
46438;DHT22;32137;48.728;9.142;2023-07-13T12:48:10;33.40;99.90
46438;DHT22;32137;48.728;9.142;2023-07-13T12:50:40;33.00;1.00
46438;DHT22;32137;48.728;9.142;2023-07-13T12:53:14;33.30;1.00
46438;DHT22;32137;48.728;9.142;2023-07-13T12:55:49;33.70;99.90
46438;DHT22;32137;48.728;9.142;2023-07-13T13:00:55;34.60;99.90
46438;DHT22;32137;48.728;9.142;2023-07-13T13:03:34;35.00;99.90
46438;DHT22;32137;48.728;9.142;2023-07-13T13:06:23;35.00;99.90
46438;DHT22;32137;48.728;9.142;2023-07-13T13:08:50;35.20;99.90
46438;DHT22;32137;48.728;9.142;2023-07-13T13:11:17;36.60;99.90
46438;DHT22;32137;48.728;9.142;2023-07-13T13:13:44;37.90;99.90
46438;DHT22;32137;48.728;9.142;2023-07-13T13:18:38;40.10;99.90
46438;DHT22;32137;48.728;9.142;2023-07-13T13:21:03;40.60;99.90
46438;DHT22;32137;48.728;9.142;2023-07-13T13:23:29;40.70;99.90
46438;DHT22;32137;48.728;9.142;2023-07-13T13:25:55;40.40;99.90
46438;DHT22;32137;48.728;9.142;2023-07-13T13:28:21;40.40;99.90
46438;DHT22;32137;48.728;9.142;2023-07-13T13:30:49;39.30;99.90
46438;DHT22;32137;48.728;9.142;2023-07-13T13:33:18;37.00;99.90
46438;DHT22;32137;48.728;9.142;2023-07-13T13:35:44;34.90;99.90
46438;DHT22;32137;48.728;9.142;2023-07-13T13:38:22;33.80;99.90
46438;DHT22;32137;48.728;9.142;2023-07-13T13:40:49;34.70;99.90
46438;DHT22;32137;48.728;9.142;2023-07-13T13:43:23;34.20;99.90
46438;DHT22;32137;48.728;9.142;2023-07-13T13:45:52;33.60;99.90
46438;DHT22;32137;48.728;9.142;2023-07-13T13:48:21;32.40;99.90
46438;DHT22;32137;48.728;9.142;2023-07-13T13:50:56;31.70;99.90
46438;DHT22;32137;48.728;9.142;2023-07-13T13:53:21;31.00;99.90
46438;DHT22;32137;48.728;9.142;2023-07-13T13:55:49;30.90;99.90
46438;DHT22;32137;48.728;9.142;2023-07-13T13:58:15;31.40;99.90
46438;DHT22;32137;48.728;9.142;2023-07-13T14:00:40;32.00;99.90
46438;DHT22;32137;48.728;9.142;2023-07-13T14:03:19;31.80;99.90
46438;DHT22;32137;48.728;9.142;2023-07-13T14:05:47;31.40;99.90
46438;DHT22;32137;48.728;9.142;2023-07-13T14:08:19;30.90;99.90
46438;DHT22;32137;48.728;9.142;2023-07-13T14:10:46;30.70;99.90
46438;DHT22;32137;48.728;9.142;2023-07-13T14:13:26;31.00;99.90
46438;DHT22;32137;48.728;9.142;2023-07-13T14:15:53;31.30;99.90
46438;DHT22;32137;48.728;9.142;2023-07-13T14:18:19;31.10;99.90
46438;DHT22;32137;48.728;9.142;2023-07-13T14:20:48;31.10;99.90
46438;DHT22;32137;48.728;9.142;2023-07-13T14:23:14;31.10;99.90
46438;DHT22;32137;48.728;9.142;2023-07-13T14:25:41;30.80;99.90
46438;DHT22;32137;48.728;9.142;2023-07-13T14:30:41;29.80;1.00
46438;DHT22;32137;48.728;9.142;2023-07-13T14:33:11;29.40;1.00
46438;DHT22;32137;48.728;9.142;2023-07-13T14:35:36;29.20;1.00
46438;DHT22;32137;48.728;9.142;2023-07-13T14:38:04;29.50;1.00
46438;DHT22;32137;48.728;9.142;2023-07-13T14:40:31;30.00;1.00
46438;DHT22;32137;48.728;9.142;2023-07-13T14:42:58;30.20;99.90
46438;DHT22;32137;48.728;9.142;2023-07-13T14:45:24;30.40;99.90
46438;DHT22;32137;48.728;9.142;2023-07-13T14:47:50;30.50;99.90
46438;DHT22;32137;48.728;9.142;2023-07-13T14:50:20;30.50;99.90
46438;DHT22;32137;48.728;9.142;2023-07-13T14:52:46;30.40;99.90
46438;DHT22;32137;48.728;9.142;2023-07-13T14:55:15;30.30;99.90
46438;DHT22;32137;48.728;9.142;2023-07-13T14:57:40;30.10;99.90
46438;DHT22;32137;48.728;9.142;2023-07-13T15:00:13;30.00;99.90
46438;DHT22;32137;48.728;9.142;2023-07-13T15:02:41;30.00;99.90
46438;DHT22;32137;48.728;9.142;2023-07-13T15:05:18;30.10;99.90
46438;DHT22;32137;48.728;9.142;2023-07-13T15:07:44;30.10;99.90
46438;DHT22;32137;48.728;9.142;2023-07-13T15:10:31;29.80;99.90
46438;DHT22;32137;48.728;9.142;2023-07-13T15:13:20;29.70;99.90
46438;DHT22;32137;48.728;9.142;2023-07-13T15:15:51;29.80;99.90
46438;DHT22;32137;48.728;9.142;2023-07-13T15:18:19;29.70;99.90
46438;DHT22;32137;48.728;9.142;2023-07-13T15:20:47;29.60;99.90
46438;DHT22;32137;48.728;9.142;2023-07-13T15:23:16;29.50;99.90
46438;DHT22;32137;48.728;9.142;2023-07-13T15:25:43;29.40;99.90
46438;DHT22;32137;48.728;9.142;2023-07-13T15:28:09;29.30;99.90
46438;DHT22;32137;48.728;9.142;2023-07-13T15:30:40;29.20;99.90
46438;DHT22;32137;48.728;9.142;2023-07-13T15:33:16;29.20;99.90
46438;DHT22;32137;48.728;9.142;2023-07-13T15:35:42;29.20;99.90
46438;DHT22;32137;48.728;9.142;2023-07-13T15:38:23;29.10;99.90
46438;DHT22;32137;48.728;9.142;2023-07-13T15:40:50;29.10;99.90
46438;DHT22;32137;48.728;9.142;2023-07-13T15:43:16;28.90;99.90
46438;DHT22;32137;48.728;9.142;2023-07-13T15:45:43;28.90;99.90
46438;DHT22;32137;48.728;9.142;2023-07-13T15:48:20;29.00;99.90
46438;DHT22;32137;48.728;9.142;2023-07-13T15:50:51;28.90;99.90
46438;DHT22;32137;48.728;9.142;2023-07-13T15:53:20;29.00;99.90
46438;DHT22;32137;48.728;9.142;2023-07-13T15:55:47;29.10;99.90
46438;DHT22;32137;48.728;9.142;2023-07-13T15:58:12;29.10;99.90
46438;DHT22;32137;48.728;9.142;2023-07-13T16:00:40;28.90;99.90
46438;DHT22;32137;48.728;9.142;2023-07-13T16:03:07;28.80;99.90
46438;DHT22;32137;48.728;9.142;2023-07-13T16:05:33;28.70;99.90
46438;DHT22;32137;48.728;9.142;2023-07-13T16:07:59;28.50;99.90
46438;DHT22;32137;48.728;9.142;2023-07-13T16:10:36;28.40;99.90
46438;DHT22;32137;48.728;9.142;2023-07-13T16:13:04;28.40;99.90
46438;DHT22;32137;48.728;9.142;2023-07-13T16:15:32;28.40;99.90
46438;DHT22;32137;48.728;9.142;2023-07-13T16:17:58;28.30;99.90
46438;DHT22;32137;48.728;9.142;2023-07-13T16:20:24;28.30;99.90
46438;DHT22;32137;48.728;9.142;2023-07-13T16:22:53;28.20;99.90
46438;DHT22;32137;48.728;9.142;2023-07-13T16:25:21;28.10;99.90